Date,TemperatureHighF,TemperatureAvgF,TemperatureLowF,DewpointHighF,DewpointAvgF,DewpointLowF,HumidityHigh,HumidityAvg,HumidityLow,PressureMaxIn,PressureMinIn,WindSpeedMaxMPH,WindSpeedAvgMPH,GustSpeedMaxMPH,PrecipitationSumIn
2013-6-1,77.5,67.6,63.3,70.5,64.5,59.0,100,90,61,29.92,29.75,24,2,24,1.22
2013-6-2,75.4,65.1,54.8,63.1,55.9,52.4,100,75,50,29.98,29.92,10,2,10,0.00
2013-6-3,79.3,65.2,51.6,58.4,54.2,51.0,100,71,44,30.01,29.89,9,2,9,0.00
2013-6-4,79.3,68.5,57.9,60.2,57.5,54.1,100,70,50,30.01,29.86,12,2,12,0.00
2013-6-5,79.7,68.7,59.9,67.1,61.5,58.4,100,80,51,29.98,29.78,15,2,15,2.78
2013-6-6,75.5,68.8,59.2,65.6,58.5,54.8,100,72,54,29.89,29.80,12,2,12,0.00
2013-6-7,79.5,68.6,56.8,62.9,54.3,49.7,100,64,40,29.92,29.83,11,2,11,0.00
2013-6-8,82.9,69.0,54.3,61.1,55.6,52.0,100,67,40,29.92,29.83,9,2,9,0.00
2013-6-9,85.1,70.7,60.4,64.6,59.2,54.8,94,70,38,29.89,29.80,17,2,17,0.00
2013-6-10,89.8,74.4,58.1,66.2,61.0,56.6,100,67,38,29.92,29.83,17,3,17,0.00
2013-6-11,93.5,78.9,63.5,69.7,64.9,62.1,100,67,38,29.98,29.89,10,2,10,0.00
2013-6-12,90.8,79.3,66.7,71.0,66.8,64.8,100,69,44,30.01,29.86,17,3,17,0.00
2013-6-13,94.8,80.9,68.2,73.6,67.9,60.1,100,68,45,29.95,29.86,15,3,15,0.00
2013-6-14,89.0,78.1,68.9,66.2,63.2,59.4,87,62,47,30.01,29.92,8,2,8,0.00
2013-6-15,87.4,77.1,64.9,65.8,62.9,58.5,99,64,42,30.01,29.89,12,2,12,0.00
2013-6-16,86.5,74.3,65.8,71.5,66.4,57.2,100,78,51,30.01,29.83,28,2,28,1.10
2013-6-17,80.8,70.9,64.9,73.0,66.7,62.2,100,89,54,29.95,29.83,12,2,12,0.28
2013-6-18,86.0,74.4,63.8,69.6,64.5,60.6,100,75,44,29.98,29.86,8,1,8,0.04
2013-6-19,86.7,74.4,61.0,68.2,63.8,59.0,100,73,44,30.01,29.92,11,2,11,0.04
2013-6-20,89.0,77.8,63.8,71.5,66.0,63.6,100,70,47,30.07,29.95,12,2,12,0.04
2013-6-21,91.0,81.3,70.7,70.7,67.6,63.3,94,65,42,30.07,29.98,11,2,11,0.00
2013-6-22,90.1,79.8,70.5,71.4,67.4,62.5,100,68,46,30.07,29.92,12,3,12,0.00
2013-6-23,90.3,79.2,68.3,68.7,66.0,62.2,99,67,43,30.01,29.89,11,2,11,0.00
2013-6-24,90.1,79.7,68.5,69.4,66.4,62.5,100,67,42,30.04,29.92,13,2,13,0.00
2013-6-25,89.6,79.8,70.1,68.8,66.0,62.7,94,65,43,29.98,29.83,13,2,13,0.00
2013-6-26,92.6,81.5,70.5,71.7,68.8,65.1,100,68,47,29.89,29.80,13,2,13,0.00
2013-6-27,95.9,83.4,70.7,73.9,70.7,66.8,100,69,41,29.92,29.83,12,2,12,0.00
2013-6-28,95.2,84.2,73.7,74.6,66.8,59.5,98,60,33,29.86,29.75,16,3,16,0.00
2013-6-29,88.3,76.2,62.4,64.5,57.1,50.4,97,56,35,29.83,29.72,22,3,22,0.00
2013-6-30,81.1,71.9,62.2,57.2,54.4,52.0,74,55,42,29.89,29.78,13,2,13,0.00